createdAt,value
2022-10-23T16:37:09.821Z,18.37
2022-10-23T16:38:10.807Z,18.33
2022-10-23T16:39:10.805Z,18.31
2022-10-23T16:40:10.787Z,18.29
2022-10-23T16:41:10.777Z,18.28
2022-10-23T16:42:10.828Z,18.27
2022-10-23T16:43:10.760Z,18.22
2022-10-23T16:44:10.763Z,18.21
2022-10-23T16:45:10.735Z,18.21
2022-10-23T16:46:10.707Z,18.18
2022-10-23T16:47:10.748Z,18.15
2022-10-23T16:48:10.700Z,18.12
2022-10-23T16:49:10.705Z,18.07
2022-10-23T16:50:10.667Z,18.04
2022-10-23T16:51:10.672Z,18.02
2022-10-23T16:52:10.663Z,18.00
2022-10-23T16:53:10.640Z,17.95
2022-10-23T16:54:10.653Z,17.92
2022-10-23T16:55:10.691Z,17.88
2022-10-23T16:56:10.624Z,17.85
2022-10-23T16:57:10.602Z,17.84
2022-10-23T16:58:10.606Z,17.84
2022-10-23T16:59:10.617Z,17.85
2022-10-23T17:00:10.564Z,17.87
2022-10-23T17:01:10.701Z,17.89
2022-10-23T17:02:10.729Z,17.89
2022-10-23T17:03:10.547Z,17.89
2022-10-23T17:04:10.550Z,17.91
2022-10-23T17:05:10.539Z,17.88
2022-10-23T17:06:11.373Z,17.88
2022-10-23T17:07:10.573Z,17.85
2022-10-23T17:08:10.494Z,17.87
2022-10-23T17:09:10.506Z,17.85
2022-10-23T17:10:10.462Z,17.87
2022-10-23T17:11:10.460Z,17.85
2022-10-23T17:12:10.442Z,17.87
2022-10-23T17:13:10.448Z,17.87
2022-10-23T17:14:10.428Z,17.85
2022-10-23T17:15:10.441Z,17.85
2022-10-23T17:16:10.413Z,17.88
2022-10-23T17:17:10.398Z,17.87
2022-10-23T17:18:10.390Z,17.85
2022-10-23T17:19:20.636Z,17.87
2022-10-23T17:20:10.379Z,17.89
2022-10-23T17:21:10.412Z,17.95
2022-10-23T17:22:10.372Z,17.97
2022-10-23T17:23:10.553Z,17.99
2022-10-23T17:24:10.352Z,17.99
2022-10-23T17:25:10.330Z,17.97
2022-10-23T17:26:10.300Z,17.95
2022-10-23T17:27:10.295Z,17.97
2022-10-23T17:28:10.292Z,17.94
2022-10-23T17:29:10.340Z,17.92
2022-10-23T17:30:12.630Z,17.92
2022-10-23T17:31:10.254Z,17.91
2022-10-23T17:32:10.419Z,17.89
2022-10-23T17:33:10.232Z,17.87
2022-10-23T17:34:10.254Z,17.85
2022-10-23T17:35:10.222Z,17.84
2022-10-23T17:36:10.200Z,17.82
2022-10-23T17:37:10.238Z,17.81
2022-10-23T17:38:10.207Z,17.79
2022-10-23T17:39:10.203Z,17.74
2022-10-23T17:40:10.168Z,17.70
2022-10-23T17:41:10.155Z,17.67
2022-10-23T17:42:10.394Z,17.63
2022-10-23T17:43:10.141Z,17.62
